Terminal Aerodrome Forecast
Issued by NWS Jackson, MS

Home | Current Version | Previous Version | Text Only | Print | Product List | Glossary On
Versions: 1 2 3 4 5 6 7 8 9 10 11 12 13 14 15 16 17
000
FTUS44 KJAN 231303 AAA
TAFMEI
TAF AMD
KMEI 231303Z 2313/2412 00000KT 1/4SM FG VV002
     FM231500 15003KT 3SM BR OVC010
     FM231700 17005KT P6SM FEW050 SCT250
     FM240600 18005KT P6SM BKN250=

USA.gov is the U.S. government's official web portal to all federal, state and local government web resources and services.